This is the latest recevied weather packets stored in our database for station/object AC4AG. If no packets are shown the sender has not sent any weather packets the latest 1 day(s).
| Time | Temp. | Humidity | Pressure | Rain* | Wind** | Luminosity | Snow |
|---|---|---|---|---|---|---|---|
| 1778024299 | 20° C | 64% | 1007.6 hPa | 0 mm | 0.45 m/s, 143° | 29 W/m² | - |
| 1778023997 | 20.56° C | 63% | 1007.7 hPa | 0 mm | 0.45 m/s, 176° | 39 W/m² | - |
| 1778023694 | 21.11° C | 63% | 1007.7 hPa | 0 mm | 0.45 m/s, 153° | 43 W/m² | - |
| 1778023391 | 21.11° C | 61% | 1007.8 hPa | 0 mm | 0.45 m/s, 157° | 48 W/m² | - |
| 1778023088 | 21.67° C | 60% | 1007.9 hPa | 0 mm | 0.45 m/s, 196° | 97 W/m² | - |
| 1778022786 | 21.67° C | 60% | 1008 hPa | 0 mm | 1.34 m/s, 156° | 135 W/m² | - |
| 1778022484 | 21.11° C | 61% | 1007.9 hPa | 0 mm | 1.34 m/s, 174° | 197 W/m² | - |
| 1778022181 | 20.56° C | 62% | 1008 hPa | 0 mm | 0.45 m/s, 159° | 150 W/m² | - |
| 1778021877 | 20.56° C | 62% | 1008.2 hPa | 0 mm | 1.34 m/s, 160° | 74 W/m² | - |
| 1778021575 | 21.67° C | 60% | 1008.2 hPa | 0 mm | 1.34 m/s, 191° | 66 W/m² | - |
| 1778021269 | 21.67° C | 59% | 1008 hPa | 0 mm | 0.45 m/s, 148° | 127 W/m² | - |
| 1778020967 | 21.67° C | 58% | 1008.2 hPa | 0 mm | 1.34 m/s, 166° | 180 W/m² | - |
| 1778020665 | 21.67° C | 59% | 1008.1 hPa | 0 mm | 1.34 m/s, 194° | 224 W/m² | - |
| 1778020361 | 21.11° C | 59% | 1008 hPa | 0 mm | 1.79 m/s, 163° | 224 W/m² | - |
| 1778020057 | 21.11° C | 59% | 1008.4 hPa | 0 mm | 1.79 m/s, 145° | 141 W/m² | - |
| 1778019753 | 21.11° C | 59% | 1008.5 hPa | 0 mm | 1.34 m/s, 169° | 143 W/m² | - |
| 1778019450 | 21.11° C | 57% | 1008.3 hPa | 0 mm | 2.24 m/s, 182° | 153 W/m² | - |
| 1778019147 | 21.11° C | 56% | 1008.3 hPa | 0 mm | 4.02 m/s, 156° | 176 W/m² | - |
| 1778018844 | 21.11° C | 55% | 1008.3 hPa | 0 mm | 3.13 m/s, 140° | 168 W/m² | - |
| 1778018542 | 21.11° C | 56% | 1008.2 hPa | 0 mm | 2.24 m/s, 224° | 217 W/m² | - |
| 1778018240 | 21.11° C | 56% | 1008.4 hPa | 0 mm | 2.24 m/s, 212° | 219 W/m² | - |
| 1778017937 | 21.11° C | 58% | 1008.4 hPa | 0 mm | 1.34 m/s, 227° | 215 W/m² | - |
| 1778017634 | 21.11° C | 60% | 1008.5 hPa | 0 mm | 2.24 m/s, 197° | 244 W/m² | - |
| 1778017332 | 21.11° C | 63% | 1008.5 hPa | 0 mm | 0.89 m/s, 130° | 209 W/m² | - |
| 1778017029 | 21.11° C | 61% | 1008.5 hPa | 0 mm | 1.34 m/s, 210° | 233 W/m² | - |
* Rain latest hour (hover to see other rain measurements)
** Current wind speed in m/s (hover to see current wind gust speed)